createdAt,value
2023-04-02T00:01:19.354Z,48.33
2023-04-02T00:03:53.730Z,51.88
2023-04-02T00:06:30.360Z,49.53
2023-04-02T00:08:59.594Z,48.53
2023-04-02T00:11:36.010Z,47.45
2023-04-02T00:14:04.019Z,53.45
2023-04-02T00:16:31.216Z,44.13
2023-04-02T00:19:03.389Z,52.00
2023-04-02T00:21:32.434Z,55.28
2023-04-02T00:24:00.188Z,49.88
2023-04-02T00:26:35.131Z,43.33
2023-04-02T00:29:02.650Z,44.53
2023-04-02T00:31:29.700Z,54.90
2023-04-02T00:33:56.719Z,47.97
2023-04-02T00:36:23.688Z,47.58
2023-04-02T00:38:50.731Z,48.65
2023-04-02T00:41:23.403Z,50.58
2023-04-02T00:43:54.689Z,45.60
2023-04-02T00:46:24.372Z,51.45
2023-04-02T00:49:09.853Z,42.75
2023-04-02T00:51:38.805Z,44.75
2023-04-02T00:54:06.690Z,42.80
2023-04-02T00:56:54.504Z,43.97
2023-04-02T00:59:28.408Z,43.45
2023-04-02T01:02:14.937Z,41.55
2023-04-02T01:07:10.606Z,41.00
2023-04-02T01:09:59.112Z,43.80
2023-04-02T01:12:41.612Z,44.80
2023-04-02T01:15:19.946Z,36.92
2023-04-02T01:17:59.013Z,38.78
2023-04-02T01:21:03.529Z,38.22
2023-04-02T01:23:30.344Z,34.03
2023-04-02T01:26:04.669Z,38.63
2023-04-02T01:29:08.979Z,35.78
2023-04-02T01:31:36.021Z,34.90
2023-04-02T01:34:04.213Z,34.00
2023-04-02T01:36:45.664Z,36.35
2023-04-02T01:39:25.315Z,36.88
2023-04-02T01:42:07.846Z,31.42
2023-04-02T01:45:02.524Z,33.05
2023-04-02T01:47:30.409Z,35.80
2023-04-02T01:50:01.283Z,36.28
2023-04-02T01:52:40.691Z,33.63
2023-04-02T01:55:13.281Z,32.33
2023-04-02T01:57:42.245Z,32.00
2023-04-02T02:00:14.717Z,34.05
2023-04-02T02:02:44.031Z,32.13
2023-04-02T02:05:15.768Z,31.20
2023-04-02T02:07:45.562Z,32.03
2023-04-02T02:10:16.875Z,32.63
2023-04-02T02:12:43.969Z,28.63
2023-04-02T02:15:18.139Z,36.20
2023-04-02T02:17:45.232Z,30.55
2023-04-02T02:20:12.973Z,30.83
2023-04-02T02:22:42.112Z,32.05
2023-04-02T02:25:16.044Z,30.05
2023-04-02T02:28:01.569Z,29.75
2023-04-02T02:30:53.324Z,33.03
2023-04-02T02:33:39.734Z,31.83
2023-04-02T02:36:29.524Z,35.75
2023-04-02T02:39:02.166Z,30.83
2023-04-02T02:41:41.970Z,35.55
2023-04-02T02:44:09.632Z,30.17
2023-04-02T02:46:39.507Z,33.63
2023-04-02T02:49:10.527Z,32.00
2023-04-02T02:52:03.760Z,34.47
2023-04-02T02:54:55.662Z,35.28
2023-04-02T02:57:30.039Z,35.03
2023-04-02T02:59:58.052Z,36.22
2023-04-02T03:02:25.504Z,32.13
2023-04-02T03:04:54.117Z,30.70
2023-04-02T03:07:25.723Z,30.42
2023-04-02T03:10:00.674Z,27.90
2023-04-02T03:12:30.432Z,28.95
2023-04-02T03:15:28.968Z,30.63
2023-04-02T03:17:59.853Z,32.65
2023-04-02T03:20:48.567Z,29.40
2023-04-02T03:23:30.845Z,32.47
2023-04-02T03:26:16.005Z,30.85
2023-04-02T03:29:14.445Z,30.33
2023-04-02T03:31:48.102Z,30.90
2023-04-02T03:34:21.550Z,28.50
2023-04-02T03:36:57.856Z,28.55
2023-04-02T03:42:29.874Z,33.75
2023-04-02T03:45:05.678Z,32.15
2023-04-02T03:47:38.717Z,32.63
2023-04-02T03:50:21.713Z,34.35
2023-04-02T03:52:49.645Z,32.03
2023-04-02T03:55:25.962Z,35.95
2023-04-02T03:57:55.815Z,39.63
2023-04-02T04:00:27.202Z,37.50
2023-04-02T04:02:59.383Z,32.60
2023-04-02T04:05:34.029Z,34.90
2023-04-02T04:08:04.462Z,36.08
2023-04-02T04:10:31.872Z,32.95
2023-04-02T04:13:05.089Z,36.00
2023-04-02T04:15:54.544Z,33.53
2023-04-02T04:18:46.691Z,35.80
2023-04-02T04:21:22.856Z,37.85
2023-04-02T04:23:50.791Z,35.05
2023-04-02T04:26:21.382Z,33.00
2023-04-02T04:29:17.641Z,34.05
2023-04-02T04:31:55.990Z,30.05
2023-04-02T04:34:42.431Z,33.15
2023-04-02T04:37:29.273Z,34.15
2023-04-02T04:40:16.678Z,34.05
2023-04-02T04:42:43.902Z,33.22
2023-04-02T04:45:17.171Z,31.13
2023-04-02T04:47:50.624Z,32.42
2023-04-02T04:50:17.402Z,30.65
2023-04-02T04:52:44.656Z,33.40
2023-04-02T04:55:38.215Z,33.03
2023-04-02T04:58:24.780Z,34.05
2023-04-02T05:01:08.274Z,36.20
2023-04-02T05:03:39.899Z,36.72
2023-04-02T05:06:33.393Z,36.22
2023-04-02T05:09:07.499Z,37.08
2023-04-02T05:11:47.286Z,36.15
2023-04-02T05:14:24.896Z,34.55
2023-04-02T05:17:15.797Z,38.10
2023-04-02T05:19:48.229Z,43.78
2023-04-02T05:22:18.006Z,38.47
2023-04-02T05:24:51.355Z,42.08
2023-04-02T05:27:49.866Z,35.78
2023-04-02T05:30:29.018Z,36.40
2023-04-02T05:33:05.148Z,37.15
2023-04-02T05:35:34.676Z,36.47
2023-04-02T05:38:02.409Z,32.97
2023-04-02T05:40:40.210Z,31.38
2023-04-02T05:43:11.114Z,31.20
2023-04-02T05:45:43.557Z,35.95
2023-04-02T05:48:17.553Z,28.10
2023-04-02T05:50:46.190Z,36.78
2023-04-02T05:53:36.259Z,33.45
2023-04-02T05:56:08.262Z,27.63
2023-04-02T05:58:53.352Z,32.00
2023-04-02T06:01:48.366Z,29.00
2023-04-02T06:04:45.002Z,26.92
2023-04-02T06:07:18.484Z,27.27
2023-04-02T06:09:57.226Z,33.72
2023-04-02T06:12:34.906Z,29.83
2023-04-02T06:15:07.766Z,27.15
2023-04-02T06:17:55.024Z,25.77
2023-04-02T06:20:25.524Z,24.30
2023-04-02T06:23:11.358Z,27.90
2023-04-02T06:25:52.383Z,24.90
2023-04-02T06:28:42.288Z,28.10
2023-04-02T06:31:38.371Z,28.65
2023-04-02T06:34:25.110Z,24.33
2023-04-02T06:37:14.127Z,26.08
2023-04-02T06:39:46.111Z,23.23
2023-04-02T06:45:42.944Z,18.70
2023-04-02T06:48:35.456Z,24.27
2023-04-02T06:51:15.104Z,20.15
2023-04-02T06:53:51.726Z,18.05
2023-04-02T06:56:47.832Z,20.50
2023-04-02T06:59:30.506Z,19.40
2023-04-02T07:02:27.502Z,16.90
2023-04-02T07:05:13.318Z,14.90
2023-04-02T07:08:09.113Z,17.95
2023-04-02T07:10:59.848Z,17.85
2023-04-02T07:13:37.055Z,17.80
2023-04-02T07:16:17.620Z,17.17
2023-04-02T07:18:47.675Z,18.05
2023-04-02T07:21:17.418Z,17.58
2023-04-02T07:23:52.666Z,17.80
2023-04-02T07:26:26.330Z,18.25
2023-04-02T07:28:57.870Z,18.02
2023-04-02T07:31:30.734Z,16.02
2023-04-02T07:34:03.380Z,16.17
2023-04-02T07:36:34.169Z,16.98
2023-04-02T07:39:05.599Z,16.92
2023-04-02T07:41:36.063Z,17.40
2023-04-02T07:44:09.362Z,17.65
2023-04-02T07:46:53.136Z,20.98
2023-04-02T07:49:24.424Z,17.17
2023-04-02T07:51:55.971Z,22.33
2023-04-02T07:54:29.299Z,16.30
2023-04-02T07:56:58.422Z,15.05
2023-04-02T07:59:30.533Z,19.50
2023-04-02T08:01:59.698Z,16.65
2023-04-02T08:04:32.226Z,17.98
2023-04-02T08:07:02.711Z,17.85
2023-04-02T08:09:32.619Z,17.48
2023-04-02T08:12:01.738Z,17.95
2023-04-02T08:14:30.905Z,17.65
2023-04-02T08:19:57.776Z,19.83
2023-04-02T08:22:28.541Z,16.63
2023-04-02T08:24:58.464Z,22.40
2023-04-02T08:27:28.152Z,20.73
2023-04-02T08:29:57.681Z,19.17
2023-04-02T08:32:30.154Z,21.88
2023-04-02T08:34:59.995Z,21.10
2023-04-02T08:37:30.061Z,20.70
2023-04-02T08:40:00.197Z,19.73
2023-04-02T08:42:46.882Z,19.92
2023-04-02T08:45:38.276Z,20.35
2023-04-02T08:48:10.207Z,21.92
2023-04-02T08:50:41.769Z,22.83
2023-04-02T08:53:26.281Z,21.73
2023-04-02T08:56:18.249Z,21.02
2023-04-02T08:58:57.015Z,22.60
2023-04-02T09:01:52.635Z,25.95
2023-04-02T09:04:23.891Z,20.38
2023-04-02T09:06:55.237Z,20.48
2023-04-02T09:09:28.323Z,25.05
2023-04-02T09:12:05.345Z,21.02
2023-04-02T09:14:47.789Z,20.77
2023-04-02T09:17:25.260Z,26.40
2023-04-02T09:20:06.856Z,23.75
2023-04-02T09:22:37.162Z,26.60
2023-04-02T09:25:16.000Z,20.00
2023-04-02T09:27:47.685Z,26.15
2023-04-02T09:30:32.905Z,27.85
2023-04-02T09:33:08.210Z,23.83
2023-04-02T09:35:54.342Z,22.90
2023-04-02T09:38:34.217Z,28.20
2023-04-02T09:41:07.974Z,25.00
2023-04-02T09:43:40.173Z,22.50
2023-04-02T09:46:27.608Z,23.98
2023-04-02T09:48:59.753Z,20.88
2023-04-02T09:51:31.880Z,22.58
2023-04-02T09:54:04.814Z,20.67
2023-04-02T09:56:35.544Z,22.75
2023-04-02T09:59:06.205Z,20.48
2023-04-02T10:01:37.799Z,21.00
2023-04-02T10:04:06.121Z,19.63
2023-04-02T10:06:33.751Z,20.45
2023-04-02T10:09:28.945Z,19.92
2023-04-02T10:11:56.244Z,20.67
2023-04-02T10:14:26.030Z,22.25
2023-04-02T10:16:58.199Z,21.33
2023-04-02T10:19:33.484Z,21.25
2023-04-02T10:22:02.921Z,21.52
2023-04-02T10:24:29.918Z,16.70
2023-04-02T10:27:22.592Z,20.85
2023-04-02T10:30:11.254Z,25.45
2023-04-02T10:32:50.005Z,24.77
2023-04-02T10:35:21.638Z,28.27
2023-04-02T10:38:07.212Z,23.67
2023-04-02T10:40:40.145Z,26.15
2023-04-02T10:43:37.453Z,20.00
2023-04-02T10:46:27.662Z,21.85
2023-04-02T10:49:13.815Z,23.98
2023-04-02T10:51:48.684Z,22.85
2023-04-02T10:54:24.600Z,22.58
2023-04-02T10:56:53.331Z,21.00
2023-04-02T10:59:24.840Z,19.58
2023-04-02T11:01:51.821Z,22.88
2023-04-02T11:04:26.814Z,25.55
2023-04-02T11:07:11.192Z,23.35
2023-04-02T11:09:42.843Z,19.25
2023-04-02T11:12:17.211Z,21.90
2023-04-02T11:14:44.199Z,21.35
2023-04-02T11:17:12.466Z,19.77
2023-04-02T11:19:39.571Z,17.45
2023-04-02T11:22:17.703Z,16.67
2023-04-02T11:24:46.823Z,17.33
2023-04-02T11:27:33.682Z,20.15
2023-04-02T11:30:15.991Z,19.20
2023-04-02T11:32:49.324Z,17.05
2023-04-02T11:35:31.453Z,17.00
2023-04-02T11:38:12.638Z,15.93
2023-04-02T11:40:53.044Z,20.40
2023-04-02T11:43:35.974Z,19.58
2023-04-02T11:46:29.312Z,16.58
2023-04-02T11:49:37.939Z,17.55
2023-04-02T11:52:11.936Z,18.02
2023-04-02T11:54:39.595Z,18.05
2023-04-02T11:57:30.743Z,12.77
2023-04-02T12:00:26.415Z,16.50
2023-04-02T12:02:59.774Z,15.55
2023-04-02T12:05:27.568Z,16.65
2023-04-02T12:07:57.374Z,15.93
2023-04-02T12:10:25.032Z,15.82
2023-04-02T12:12:52.000Z,11.20
2023-04-02T12:15:32.747Z,12.25
2023-04-02T12:18:11.675Z,13.25
2023-04-02T12:20:38.581Z,17.63
2023-04-02T12:23:05.599Z,21.83
2023-04-02T12:25:40.319Z,17.77
2023-04-02T12:28:10.626Z,18.70
2023-04-02T12:30:38.249Z,14.27
2023-04-02T12:33:38.391Z,13.48
2023-04-02T12:36:10.070Z,12.23
2023-04-02T12:38:44.828Z,13.45
2023-04-02T12:41:24.296Z,11.95
2023-04-02T12:44:01.779Z,15.43
2023-04-02T12:46:29.954Z,11.80
2023-04-02T12:49:20.635Z,13.13
2023-04-02T12:51:48.486Z,14.60
2023-04-02T12:54:17.585Z,17.35
2023-04-02T12:56:44.504Z,13.35
2023-04-02T12:59:43.741Z,11.40
2023-04-02T13:02:21.857Z,7.95
2023-04-02T13:04:53.268Z,11.25
2023-04-02T13:07:21.787Z,13.30
2023-04-02T13:09:55.760Z,12.15
2023-04-02T13:12:36.916Z,11.55
2023-04-02T13:15:09.000Z,19.23
2023-04-02T13:17:43.730Z,17.05
2023-04-02T13:20:35.966Z,12.63
2023-04-02T13:23:30.722Z,8.25
2023-04-02T13:25:58.675Z,8.13
2023-04-02T13:28:25.615Z,7.07
2023-04-02T13:30:52.504Z,8.50
2023-04-02T13:33:20.483Z,10.48
2023-04-02T13:35:47.480Z,7.45
2023-04-02T13:38:14.437Z,10.13
2023-04-02T13:40:42.668Z,8.18
2023-04-02T13:43:15.704Z,6.55
2023-04-02T13:45:42.694Z,9.05
2023-04-02T13:48:10.405Z,10.13
2023-04-02T13:50:37.589Z,7.40
2023-04-02T13:53:07.814Z,13.30
2023-04-02T13:55:38.296Z,18.95
2023-04-02T13:58:05.467Z,10.15
2023-04-02T14:00:32.286Z,9.23
2023-04-02T14:03:02.839Z,7.47
2023-04-02T14:05:41.784Z,6.70
2023-04-02T14:08:22.270Z,6.20
2023-04-02T14:11:01.743Z,9.00
2023-04-02T14:14:03.621Z,5.97
2023-04-02T14:16:45.810Z,5.93
2023-04-02T14:19:27.920Z,7.15
2023-04-02T14:22:00.951Z,6.65
2023-04-02T14:24:41.148Z,6.80
2023-04-02T14:27:17.368Z,5.22
2023-04-02T14:35:24.700Z,5.85
2023-04-02T14:38:13.314Z,5.47
2023-04-02T14:40:50.249Z,5.55
2023-04-02T14:43:23.020Z,5.45
2023-04-02T14:46:04.126Z,7.32
2023-04-02T14:48:44.573Z,7.88
2023-04-02T14:51:40.968Z,7.70
2023-04-02T14:54:53.114Z,6.75
2023-04-02T14:57:31.664Z,15.57
2023-04-02T15:00:04.025Z,9.40
2023-04-02T15:02:30.942Z,7.22
2023-04-02T15:05:03.899Z,9.77
2023-04-02T15:07:38.413Z,9.60
2023-04-02T15:10:17.309Z,8.70
2023-04-02T15:12:45.676Z,8.13
2023-04-02T15:15:52.523Z,9.27
2023-04-02T15:18:19.559Z,7.53
2023-04-02T15:20:57.648Z,8.38
2023-04-02T15:23:49.130Z,7.40
2023-04-02T15:26:37.443Z,8.82
2023-04-02T15:29:25.831Z,9.60
2023-04-02T15:31:59.513Z,11.68
2023-04-02T15:34:32.386Z,9.68
2023-04-02T15:37:07.600Z,14.82
2023-04-02T15:40:22.213Z,6.05
2023-04-02T15:42:58.621Z,7.82
2023-04-02T15:45:29.390Z,7.00
2023-04-02T15:48:12.090Z,9.50
2023-04-02T15:51:16.663Z,6.30
2023-04-02T15:54:08.081Z,8.32
2023-04-02T15:56:51.122Z,6.55
2023-04-02T15:59:49.545Z,6.35
2023-04-02T16:02:39.790Z,5.25
2023-04-02T16:05:42.208Z,5.25
2023-04-02T16:08:24.246Z,5.93
2023-04-02T16:10:51.512Z,8.85
2023-04-02T16:13:28.520Z,8.73
2023-04-02T16:16:33.057Z,11.15
2023-04-02T16:19:02.885Z,7.47
2023-04-02T16:21:33.164Z,9.90
2023-04-02T16:24:00.190Z,7.70
2023-04-02T16:26:42.398Z,6.10
2023-04-02T16:29:24.213Z,8.02
2023-04-02T16:32:15.440Z,7.75
2023-04-02T16:34:51.383Z,8.43
2023-04-02T16:37:31.700Z,6.53
2023-04-02T16:40:22.308Z,7.15
2023-04-02T16:42:59.370Z,8.57
2023-04-02T16:45:45.058Z,7.85
2023-04-02T16:48:30.492Z,7.87
2023-04-02T16:51:21.241Z,9.43
2023-04-02T16:54:09.191Z,9.23
2023-04-02T16:56:48.055Z,10.23
2023-04-02T16:59:38.489Z,11.68
2023-04-02T17:02:20.721Z,8.13
2023-04-02T17:04:53.476Z,9.45
2023-04-02T17:07:27.525Z,11.73
2023-04-02T17:10:32.511Z,7.57
2023-04-02T17:13:03.677Z,7.68
2023-04-02T17:15:37.159Z,11.80
2023-04-02T17:18:24.879Z,10.00
2023-04-02T17:20:52.102Z,11.60
2023-04-02T17:23:19.592Z,9.98
2023-04-02T17:25:53.361Z,9.05
2023-04-02T17:28:25.705Z,9.93
2023-04-02T17:30:55.893Z,11.05
2023-04-02T17:33:26.748Z,8.80
2023-04-02T17:35:59.776Z,12.60
2023-04-02T17:38:38.771Z,10.05
2023-04-02T17:41:23.489Z,10.77
2023-04-02T17:43:58.331Z,9.10
2023-04-02T17:46:38.210Z,11.93
2023-04-02T17:49:23.171Z,12.95
2023-04-02T17:52:01.064Z,9.57
2023-04-02T17:55:25.365Z,10.57
2023-04-02T17:58:07.972Z,10.55
2023-04-02T18:00:57.705Z,10.93
2023-04-02T18:03:29.561Z,10.55
2023-04-02T18:06:15.892Z,13.45
2023-04-02T18:09:18.103Z,11.83
2023-04-02T18:12:25.783Z,12.10
2023-04-02T18:15:19.009Z,10.48
2023-04-02T18:17:54.170Z,11.95
2023-04-02T18:20:23.464Z,12.90
2023-04-02T18:23:14.973Z,8.55
2023-04-02T18:25:46.684Z,10.98
2023-04-02T18:28:24.669Z,12.98
2023-04-02T18:31:06.696Z,9.23
2023-04-02T18:34:21.151Z,12.48
2023-04-02T18:37:13.492Z,10.70
2023-04-02T18:40:00.090Z,12.70
2023-04-02T18:45:17.907Z,10.90
2023-04-02T18:47:53.764Z,13.48
2023-04-02T18:50:35.321Z,19.10
2023-04-02T18:53:19.460Z,14.73
2023-04-02T18:55:57.895Z,15.55
2023-04-02T18:58:33.703Z,14.00
2023-04-02T19:01:00.710Z,17.67
2023-04-02T19:03:37.282Z,16.20
2023-04-02T19:06:11.898Z,13.77
2023-04-02T19:09:01.129Z,15.13
2023-04-02T19:11:31.669Z,12.75
2023-04-02T19:13:59.924Z,11.85
2023-04-02T19:16:35.981Z,11.15
2023-04-02T19:19:17.643Z,16.15
2023-04-02T19:22:03.498Z,11.25
2023-04-02T19:24:42.578Z,16.00
2023-04-02T19:27:27.526Z,13.82
2023-04-02T19:30:27.904Z,11.48
2023-04-02T19:33:25.055Z,14.05
2023-04-02T19:35:58.925Z,13.20
2023-04-02T19:38:55.002Z,11.90
2023-04-02T19:41:48.245Z,12.05
2023-04-02T19:44:15.554Z,14.43
2023-04-02T19:46:42.640Z,12.52
2023-04-02T19:49:26.537Z,14.55
2023-04-02T19:51:53.739Z,12.88
2023-04-02T19:54:20.559Z,13.32
2023-04-02T19:56:47.876Z,13.80
2023-04-02T19:59:18.063Z,13.45
2023-04-02T20:01:45.571Z,14.65
2023-04-02T20:04:12.589Z,11.82
2023-04-02T20:06:39.702Z,14.32
2023-04-02T20:09:08.215Z,13.57
2023-04-02T20:11:36.251Z,10.20
2023-04-02T20:14:03.193Z,13.48
2023-04-02T20:16:30.262Z,12.18
2023-04-02T20:18:57.764Z,11.70
2023-04-02T20:21:24.612Z,10.52
2023-04-02T20:23:55.342Z,12.43
2023-04-02T20:26:22.782Z,10.77
2023-04-02T20:28:49.880Z,12.38
2023-04-02T20:31:18.051Z,11.57
2023-04-02T20:33:45.464Z,12.90
2023-04-02T20:36:16.354Z,10.15
2023-04-02T20:38:43.569Z,10.90
2023-04-02T20:41:10.478Z,14.43
2023-04-02T20:43:40.544Z,11.05
2023-04-02T20:46:09.521Z,12.88
2023-04-02T20:48:37.905Z,12.68
2023-04-02T20:51:06.154Z,12.65
2023-04-02T20:53:34.501Z,11.68
2023-04-02T20:56:08.944Z,13.38
2023-04-02T20:58:36.224Z,12.32
2023-04-02T21:01:10.325Z,11.75
2023-04-02T21:03:37.427Z,11.50
2023-04-02T21:06:04.432Z,12.25
2023-04-02T21:08:31.276Z,13.30
2023-04-02T21:11:02.754Z,16.33
2023-04-02T21:13:30.980Z,11.00
2023-04-02T21:15:58.324Z,10.35
2023-04-02T21:18:25.435Z,11.82
2023-04-02T21:21:03.464Z,12.90
2023-04-02T21:23:30.864Z,14.05
2023-04-02T21:25:58.823Z,12.63
2023-04-02T21:28:25.837Z,11.00
2023-04-02T21:30:52.782Z,11.70
2023-04-02T21:33:19.737Z,12.18
2023-04-02T21:35:46.685Z,9.80
2023-04-02T21:38:13.626Z,13.45
2023-04-02T21:40:40.540Z,14.07
2023-04-02T21:43:07.448Z,14.45
2023-04-02T21:45:34.516Z,9.63
2023-04-02T21:48:01.714Z,11.93
2023-04-02T21:50:28.701Z,9.75
2023-04-02T21:52:55.669Z,13.68
2023-04-02T21:55:22.617Z,12.27
2023-04-02T21:57:49.538Z,17.65
2023-04-02T22:00:16.608Z,12.00
2023-04-02T22:02:43.487Z,11.07
2023-04-02T22:05:10.604Z,11.27
2023-04-02T22:07:37.534Z,11.27
2023-04-02T22:10:04.742Z,8.55
2023-04-02T22:12:31.716Z,10.73
2023-04-02T22:14:58.707Z,14.07
2023-04-02T22:17:25.591Z,12.63
2023-04-02T22:19:52.516Z,12.57
2023-04-02T22:22:19.591Z,12.75
2023-04-02T22:24:46.469Z,10.88
2023-04-02T22:27:13.380Z,11.80
2023-04-02T22:29:40.368Z,10.32
2023-04-02T22:32:07.368Z,11.85
2023-04-02T22:34:34.729Z,10.98
2023-04-02T22:37:01.734Z,10.10
2023-04-02T22:39:30.941Z,9.50
2023-04-02T22:41:57.845Z,14.95
2023-04-02T22:44:24.706Z,10.48
2023-04-02T22:46:51.658Z,12.80
2023-04-02T22:49:19.492Z,11.85
2023-04-02T22:51:46.698Z,12.60
2023-04-02T22:54:13.633Z,12.68
2023-04-02T22:56:41.198Z,9.98
2023-04-02T22:59:08.096Z,10.68
2023-04-02T23:01:35.665Z,12.70
2023-04-02T23:04:04.993Z,15.32
2023-04-02T23:06:32.110Z,16.17
2023-04-02T23:08:58.997Z,16.48
2023-04-02T23:11:27.549Z,13.40
2023-04-02T23:13:55.416Z,15.30
2023-04-02T23:16:23.057Z,19.65
2023-04-02T23:18:50.232Z,17.13
2023-04-02T23:21:17.520Z,15.00
2023-04-02T23:23:45.745Z,17.27
2023-04-02T23:26:17.978Z,17.27
2023-04-02T23:28:44.952Z,17.05
2023-04-02T23:31:13.590Z,18.58
2023-04-02T23:33:40.521Z,14.43
2023-04-02T23:36:28.802Z,18.42
2023-04-02T23:38:58.023Z,25.02
2023-04-02T23:41:27.019Z,23.15
2023-04-02T23:43:55.010Z,18.58
2023-04-02T23:46:22.939Z,22.60
2023-04-02T23:48:50.895Z,17.92
2023-04-02T23:51:18.041Z,23.27
2023-04-02T23:53:44.962Z,18.15
2023-04-02T23:56:11.972Z,17.83
2023-04-02T23:58:38.964Z,16.58
